Home > Products > Valid Products > MTR

000
SAUS46 KMTR 110554
MTRMHS
METAR KMHS 110556Z AUTO 00000KT 8SM FEW085 06/01 A3027 RMK AO2
SLP265 T00610011 10161 20061 56005





000
SAUS46 KMTR 110454
MTRMHS
METAR KMHS 110456Z AUTO 00000KT 7SM CLR 06/01 A3028 RMK AO2 SLP273
T00610006





000
SAUS46 KMTR 110454
MTRMHS
METAR KMHS 110456Z AUTO 00000KT 7SM CLR 06/01 A3028 RMK AO2 SLP273
T00610006





000
SAUS46 KMTR 110354
MTRMHS
METAR KMHS 110356Z AUTO 00000KT 8SM SCT120 07/00 A3028 RMK AO2
SLP278 T00720000





000
SAUS46 KMTR 110254
MTRMHS
METAR KMHS 110256Z AUTO 00000KT 7SM CLR 08/02 A3029 RMK AO2 SLP281
T00830017 58000





000
SAUS46 KMTR 110254
MTRMHS
METAR KMHS 110256Z AUTO 00000KT 7SM CLR 08/02 A3029 RMK AO2 SLP281
T00830017 58000





000
SAUS46 KMTR 110154
MTRMHS
METAR KMHS 110156Z AUTO 00000KT 10SM CLR 10/02 A3029 RMK AO2 SLP283
T01000017





000
SAUS46 KMTR 110154
MTRMHS
METAR KMHS 110156Z AUTO 00000KT 10SM CLR 10/02 A3029 RMK AO2 SLP283
T01000017





000
SAUS46 KMTR 110055
MTRMHS
METAR KMHS 110056Z AUTO VRB03KT 10SM CLR 13/02 A3029 RMK AO2 SLP278
T01330022





000
SAUS46 KMTR 110055
MTRMHS
METAR KMHS 110056Z AUTO VRB03KT 10SM CLR 13/02 A3029 RMK AO2 SLP278
T01330022





000
SAUS46 KMTR 102354
MTRMHS
METAR KMHS 102356Z AUTO 00000KT 10SM CLR 16/01 A3029 RMK AO2 SLP273
T01560011 10172 20133 55005





000
SAUS46 KMTR 102354
MTRMHS
METAR KMHS 102356Z AUTO 00000KT 10SM CLR 16/01 A3029 RMK AO2 SLP273
T01560011 10172 20133 55005





000
SAUS46 KMTR 102254
MTRMHS
METAR KMHS 102256Z AUTO VRB03KT 10SM CLR 17/M01 A3028 RMK AO2 SLP270
T01671006





000
SAUS46 KMTR 102254
MTRMHS
METAR KMHS 102256Z AUTO VRB03KT 10SM CLR 17/M01 A3028 RMK AO2 SLP270
T01671006





000
SAUS46 KMTR 102154
MTRMHS
METAR KMHS 102156Z AUTO 00000KT 10SM CLR 17/01 A3029 RMK AO2 SLP272
T01720011





000
SAUS46 KMTR 102054
MTRMHS
METAR KMHS 102056Z AUTO 00000KT 10SM CLR 15/02 A3031 RMK AO2 SLP277
T01500017 58005





000
SAUS46 KMTR 102054
MTRMHS
METAR KMHS 102056Z AUTO 00000KT 10SM CLR 15/02 A3031 RMK AO2 SLP277
T01500017 58005





000
SAUS46 KMTR 101954
MTRMHS
METAR KMHS 101956Z AUTO 00000KT 10SM CLR 15/02 A3032 RMK AO2 SLP281
T01500017





000
SAUS46 KMTR 101854
MTRMHS
METAR KMHS 101856Z AUTO 00000KT 10SM CLR 15/02 A3033 RMK AO2 SLP286
T01500017





000
SAUS46 KMTR 101854
MTRMHS
METAR KMHS 101856Z AUTO 00000KT 10SM CLR 15/02 A3033 RMK AO2 SLP286
T01500017





000
SAUS46 KMTR 101754
MTRMHS
METAR KMHS 101756Z AUTO 00000KT 10SM CLR 14/01 A3032 RMK AO2 SLP285
T01390011 10139 20000 53004





000
SAUS46 KMTR 101754
MTRMHS
METAR KMHS 101756Z AUTO 00000KT 10SM CLR 14/01 A3032 RMK AO2 SLP285
T01390011 10139 20000 53004





000
SAUS46 KMTR 101654
MTRMHS
METAR KMHS 101656Z AUTO 00000KT 10SM CLR 08/01 A3032 RMK AO2 SLP287
T00830006





000
SAUS46 KMTR 101654
MTRMHS
METAR KMHS 101656Z AUTO 00000KT 10SM CLR 08/01 A3032 RMK AO2 SLP287
T00830006





000
SAUS46 KMTR 101554
MTRMHS
METAR KMHS 101556Z AUTO 00000KT 10SM CLR 04/00 A3031 RMK AO2 SLP286
T00390000





000
SAUS46 KMTR 101454
MTRMHS
METAR KMHS 101456Z AUTO 00000KT 10SM CLR 02/M01 A3031 RMK AO2 SLP286
T00221011 53011





000
SAUS46 KMTR 101354
MTRMHS
METAR KMHS 101356Z AUTO 00000KT 10SM CLR 01/M02 A3029 RMK AO2 SLP278
T00111022





000
SAUS46 KMTR 101254
MTRMHS
METAR KMHS 101256Z AUTO 00000KT 10SM CLR 01/M02 A3029 RMK AO2 SLP272
T00111022





000
SAUS46 KMTR 101254
MTRMHS
METAR KMHS 101256Z AUTO 00000KT 10SM CLR 01/M02 A3029 RMK AO2 SLP272
T00111022





000
SAUS46 KMTR 101154
MTRMHS
METAR KMHS 101156Z AUTO 00000KT 10SM CLR 02/M02 A3027 RMK AO2 SLP263
T00171017 10044 20017 55000





000
SAUS46 KMTR 101154
MTRMHS
METAR KMHS 101156Z AUTO 00000KT 10SM CLR 02/M02 A3027 RMK AO2 SLP263
T00171017 10044 20017 55000





000
SAUS46 KMTR 101054
MTRMHS
METAR KMHS 101056Z AUTO 08004KT 10SM CLR 02/M02 A3027 RMK AO2 SLP260
T00221022





000
SAUS46 KMTR 101054
MTRMHS
METAR KMHS 101056Z AUTO 08004KT 10SM CLR 02/M02 A3027 RMK AO2 SLP260
T00221022





000
SAUS46 KMTR 100954
MTRMHS
METAR KMHS 100956Z AUTO 05003KT 10SM CLR 03/M02 A3027 RMK AO2 SLP262
T00281017





000
SAUS46 KMTR 100854
MTRMHS
METAR KMHS 100856Z AUTO 00000KT 10SM CLR 03/M01 A3027 RMK AO2 SLP263
T00331006 50003





000
SAUS46 KMTR 100854
MTRMHS
METAR KMHS 100856Z AUTO 00000KT 10SM CLR 03/M01 A3027 RMK AO2 SLP263
T00331006 50003





000
SAUS46 KMTR 100754
MTRMHS
METAR KMHS 100756Z AUTO 05003KT 10SM CLR 04/M01 A3028 RMK AO2 SLP266
T00391011 402000006





000
SAUS46 KMTR 100654
MTRMHS
METAR KMHS 100656Z AUTO 00000KT 10SM CLR 03/M02 A3029 RMK AO2 SLP272
T00281022





000
SAUS46 KMTR 100654
MTRMHS
METAR KMHS 100656Z AUTO 00000KT 10SM CLR 03/M02 A3029 RMK AO2 SLP272
T00281022





000
SAUS46 KMTR 100555
MTRMHS
METAR KMHS 100556Z AUTO 05003KT 10SM CLR 04/M02 A3026 RMK AO2 SLP265
T00391017 10194 20033 50002





000
SAUS46 KMTR 100555
MTRMHS
METAR KMHS 100556Z AUTO 05003KT 10SM CLR 04/M02 A3026 RMK AO2 SLP265
T00391017 10194 20033 50002





000
SAUS46 KMTR 100455
MTRMHS
METAR KMHS 100456Z AUTO 05003KT 10SM CLR 06/M01 A3026 RMK AO2 SLP270
T00561011





000
SAUS46 KMTR 100455
MTRMHS
METAR KMHS 100456Z AUTO 05003KT 10SM CLR 06/M01 A3026 RMK AO2 SLP270
T00561011





000
SAUS46 KMTR 100354
MTRMHS
METAR KMHS 100356Z AUTO 00000KT 10SM CLR 08/M01 A3027 RMK AO2 SLP274
T00781006





000
SAUS46 KMTR 100254
MTRMHS
METAR KMHS 100256Z AUTO 00000KT 10SM CLR 09/01 A3026 RMK AO2 SLP270
T00940011 53000





000
SAUS46 KMTR 100154
MTRMHS
METAR KMHS 100156Z AUTO 09003KT 10SM CLR 13/01 A3025 RMK AO2 SLP263
T01330011





000
SAUS46 KMTR 100055
MTRMHS
METAR KMHS 100056Z AUTO 00000KT 10SM CLR 17/00 A3025 RMK AO2 SLP258
T01670000





000
SAUS46 KMTR 100055
MTRMHS
METAR KMHS 100056Z AUTO 00000KT 10SM CLR 17/00 A3025 RMK AO2 SLP258
T01670000





000
SAUS46 KMTR 092354
MTRMHS
METAR KMHS 092356Z AUTO 00000KT 10SM CLR 19/01 A3026 RMK AO2 SLP256
T01940006 10200 20128 55008





000
SAUS46 KMTR 092354
MTRMHS
METAR KMHS 092356Z AUTO 00000KT 10SM CLR 19/01 A3026 RMK AO2 SLP256
T01940006 10200 20128 55008





000
SAUS46 KMTR 092254
MTRMHS
METAR KMHS 092256Z AUTO 00000KT 10SM CLR 19/00 A3025 RMK AO2 SLP255
T01940000





000
SAUS46 KMTR 092254
MTRMHS
METAR KMHS 092256Z AUTO 00000KT 10SM CLR 19/00 A3025 RMK AO2 SLP255
T01940000





000
SAUS46 KMTR 092154
MTRMHS
METAR KMHS 092156Z AUTO 00000KT 10SM CLR 19/M01 A3024 RMK AO2 SLP252
T01891011





000
SAUS46 KMTR 092154
MTRMHS
METAR KMHS 092156Z AUTO 00000KT 10SM CLR 19/M01 A3024 RMK AO2 SLP252
T01891011





000
SAUS46 KMTR 092054
MTRMHS
METAR KMHS 092056Z AUTO 00000KT 10SM CLR 18/01 A3028 RMK AO2 SLP265
T01830011 58019





000
SAUS46 KMTR 091954
MTRMHS
METAR KMHS 091956Z AUTO 00000KT 10SM CLR 17/01 A3030 RMK AO2 SLP273
T01670006





000
SAUS46 KMTR 091954
MTRMHS
METAR KMHS 091956Z AUTO 00000KT 10SM CLR 17/01 A3030 RMK AO2 SLP273
T01670006





000
SAUS46 KMTR 091854
MTRMHS
METAR KMHS 091856Z AUTO 00000KT 10SM CLR 15/M01 A3033 RMK AO2 SLP282
T01501006





000
SAUS46 KMTR 091854
MTRMHS
METAR KMHS 091856Z AUTO 00000KT 10SM CLR 15/M01 A3033 RMK AO2 SLP282
T01501006





000
SAUS46 KMTR 091754
MTRMHS
METAR KMHS 091756Z AUTO 00000KT 10SM CLR 13/M01 A3034 RMK AO2 SLP290
T01281006 10128 20006 50003





000
SAUS46 KMTR 091654
MTRMHS
METAR KMHS 091656Z AUTO 00000KT 10SM CLR 07/00 A3035 RMK AO2 SLP296
T00720000





000
SAUS46 KMTR 091654
MTRMHS
METAR KMHS 091656Z AUTO 00000KT 10SM CLR 07/00 A3035 RMK AO2 SLP296
T00720000





000
SAUS46 KMTR 091554
MTRMHS
METAR KMHS 091556Z AUTO 00000KT 10SM CLR 02/M02 A3034 RMK AO2 SLP293
T00171022





000
SAUS46 KMTR 091454
MTRMHS
METAR KMHS 091456Z AUTO 04003KT 10SM CLR 01/M03 A3033 RMK AO2 SLP290
T00111028 50002





000
SAUS46 KMTR 082055
MTRMHS
METAR KMHS 082056Z AUTO 19004KT 10SM CLR 20/M02 A3037 RMK AO2 SLP297
T02001022 58024





000
SAUS46 KMTR 081954
MTRMHS
METAR KMHS 081956Z AUTO 10SM CLR 19/M02 A3040 RMK AO2 SLP308
T01891017





000
SAUS46 KMTR 081654
MTRMHS
METAR KMHS 081656Z AUTO 00000KT 10SM CLR 07/02 A3045 RMK AO2 SLP339
T00670017





000
SAUS46 KMTR 081554
MTRMHS
METAR KMHS 081556Z AUTO 06004KT 10SM CLR 01/M02 A3045 RMK AO2 SLP344
T00061017





000
SAUS46 KMTR 081354
MTRMHS
METAR KMHS 081356Z AUTO 06003KT 10SM CLR 01/M02 A3046 RMK AO2 SLP339
T00061017





000
SAUS46 KMTR 081354
MTRMHS
METAR KMHS 081356Z AUTO 06003KT 10SM CLR 01/M02 A3046 RMK AO2 SLP339
T00061017





000
SAUS46 KMTR 081154
MTRMHS
METAR KMHS 081156Z AUTO 33003KT 10SM CLR 01/M01 A3046 RMK AO2 SLP334
T00111011 10039 20006 58007





000
SAUS46 KMTR 081154
MTRMHS
METAR KMHS 081156Z AUTO 33003KT 10SM CLR 01/M01 A3046 RMK AO2 SLP334
T00111011 10039 20006 58007





000
SAUS46 KMTR 080854
MTRMHS
METAR KMHS 080856Z AUTO 00000KT 8SM CLR 02/00 A3049 RMK AO2 SLP340
T00220000 56005





000
SAUS46 KMTR 080754
MTRMHS
METAR KMHS 080756Z AUTO 00000KT 8SM CLR 02/00 A3049 RMK AO2 SLP343
T00220000 401670011





000
SAUS46 KMTR 080654
MTRMHS
METAR KMHS 080656Z AUTO 00000KT 7SM CLR 03/01 A3050 RMK AO2 SLP350
T00280006





000
SAUS46 KMTR 080654
MTRMHS
METAR KMHS 080656Z AUTO 00000KT 7SM CLR 03/01 A3050 RMK AO2 SLP350
T00280006





    US Dept of Commerce
    National Oceanic and Atmospheric Administration
    National Weather Service
    1325 East West Highway
    Silver Spring, MD 20910
    Page Author: NWS Internet Services Team
Disclaimer
Information Quality
Credits
Glossary
Privacy Policy
Freedom of Information Act (FOIA)
About Us
Career Opportunities